#olympicair

6076 posts

TOP POSTS

Morning flights have great sunlight! #olympicair #morningflight #airport #aviation

Οι Έλληνες πιλότοι,οι καλύτεροι στον κόσμο 💪🏼👨🏼‍✈️ #olympicair #fly #greece #thebestplacetobe

Mykonos bound. #vacation #olympicair #Greece 🇬🇷

• Με αεροπλάνα ... • #airoplane #flight #olympicairways #olympicair

final approach to Naxos - cant wait to hit the familiar waters below! #naxos #greece #olympicair #mydreamvacation

MOST RECENT

Landing at @athairport El Venizelos in runway 03L with olympic's DH8D
Metar:LGAV 082020Z 02016KT CAVOK 30/18 Q1013 NOSIG
I hope one day i'm on this aircraft as a pilot... #athens #olympicair #olympicairways #bombardier #dash8q400 #fsx #flightsimulator #aviation #sky #skylovers #boeing #airplanes #airbus #pilotlife #pilot #crew #crewlife #greece #spata #day #flight #gopro #goproaviation #goodmorning #instamoment #instago #insta #instame #goprohero4 #boeingfanpage

Morning flights have great sunlight! #olympicair #morningflight #airport #aviation

Most Popular Instagram Hashtags